createdAt,value
2022-11-30T00:01:18.940Z,94.82
2022-11-30T00:03:46.427Z,94.49
2022-11-30T00:06:16.058Z,95.01
2022-11-30T00:08:43.430Z,93.95
2022-11-30T00:11:16.370Z,94.79
2022-11-30T00:13:43.301Z,94.98
2022-11-30T00:16:10.481Z,94.11
2022-11-30T00:18:38.135Z,94.08
2022-11-30T00:21:09.031Z,94.26
2022-11-30T00:23:38.887Z,94.99
2022-11-30T00:26:09.010Z,95.22
2022-11-30T00:28:38.060Z,95.27
2022-11-30T00:31:08.299Z,94.96
2022-11-30T00:33:37.715Z,94.63
2022-11-30T00:36:07.674Z,94.21
2022-11-30T00:38:34.754Z,94.04
2022-11-30T00:41:02.163Z,94.53
2022-11-30T00:43:29.537Z,94.49
2022-11-30T00:45:57.866Z,94.57
2022-11-30T00:48:25.182Z,95.00
2022-11-30T00:50:52.428Z,94.95
2022-11-30T00:53:20.315Z,93.80
2022-11-30T00:55:48.317Z,95.67
2022-11-30T04:57:31.369Z,94.39
2022-11-30T04:59:58.365Z,94.60
2022-11-30T05:02:25.240Z,95.97
2022-11-30T05:04:52.227Z,94.47
2022-11-30T05:07:19.234Z,95.58
2022-11-30T05:10:03.182Z,94.70
2022-11-30T05:12:59.473Z,94.51
2022-11-30T05:15:42.345Z,94.13
2022-11-30T05:18:32.624Z,94.24
2022-11-30T05:21:17.606Z,94.28
2022-11-30T05:24:04.627Z,93.17
2022-11-30T05:27:06.465Z,93.34
2022-11-30T05:29:53.595Z,93.20
2022-11-30T05:32:20.483Z,92.57
2022-11-30T05:34:51.012Z,92.79
2022-11-30T05:37:19.637Z,91.78
2022-11-30T05:39:46.603Z,91.61
2022-11-30T05:42:13.505Z,93.06
2022-11-30T05:44:40.430Z,92.11
2022-11-30T05:47:07.436Z,92.58
2022-11-30T05:49:34.382Z,92.90
2022-11-30T05:52:01.279Z,92.77
2022-11-30T05:54:28.230Z,94.15
2022-11-30T05:56:55.501Z,93.50
2022-11-30T05:59:23.117Z,92.71
2022-11-30T06:01:52.782Z,92.79
2022-11-30T06:04:20.514Z,93.77
2022-11-30T06:06:47.923Z,93.15
2022-11-30T06:09:14.866Z,92.83
2022-11-30T06:11:41.734Z,92.71
2022-11-30T06:14:08.655Z,93.52
2022-11-30T06:16:35.588Z,92.73
2022-11-30T06:19:02.512Z,92.25
2022-11-30T06:21:29.414Z,93.29
2022-11-30T06:23:57.174Z,92.67
2022-11-30T06:26:24.040Z,92.96
2022-11-30T06:28:51.016Z,92.85
2022-11-30T06:31:17.974Z,92.73
2022-11-30T06:33:44.947Z,93.79
2022-11-30T06:36:11.874Z,92.58
2022-11-30T06:38:38.794Z,91.65
2022-11-30T06:41:09.726Z,92.73
2022-11-30T06:43:39.004Z,92.93
2022-11-30T06:46:07.222Z,92.63
2022-11-30T06:48:35.818Z,92.22
2022-11-30T06:51:06.644Z,92.34
2022-11-30T06:53:33.599Z,91.72
2022-11-30T06:56:09.629Z,92.90
2022-11-30T06:58:38.753Z,93.31
2022-11-30T07:01:07.427Z,92.67
2022-11-30T07:03:34.467Z,92.22
2022-11-30T07:06:01.344Z,92.15
2022-11-30T07:08:28.332Z,91.61
2022-11-30T07:10:55.196Z,91.36
2022-11-30T07:13:22.196Z,92.53
2022-11-30T07:15:49.064Z,91.60
2022-11-30T07:18:16.011Z,91.48
2022-11-30T07:20:43.068Z,91.62
2022-11-30T07:23:28.768Z,90.88
2022-11-30T07:26:12.567Z,92.10
2022-11-30T07:28:42.173Z,91.70
2022-11-30T07:31:27.024Z,91.84
2022-11-30T07:33:53.993Z,91.70
2022-11-30T07:36:23.908Z,91.81
2022-11-30T07:38:50.764Z,91.21
2022-11-30T07:41:18.013Z,91.05
2022-11-30T07:43:45.183Z,91.49
2022-11-30T07:46:13.748Z,90.46
2022-11-30T07:48:40.934Z,89.64
2022-11-30T07:51:12.504Z,90.27
2022-11-30T07:53:41.325Z,91.28
2022-11-30T07:56:11.624Z,90.43
2022-11-30T07:58:39.626Z,90.25
2022-11-30T08:01:09.750Z,89.92
2022-11-30T08:03:37.479Z,90.33
2022-11-30T08:06:10.090Z,91.00
2022-11-30T08:08:39.445Z,89.31
2022-11-30T08:11:08.112Z,90.13
2022-11-30T08:13:35.428Z,89.65
2022-11-30T08:16:03.916Z,88.79
2022-11-30T08:18:30.852Z,88.46
2022-11-30T08:21:06.239Z,88.38
2022-11-30T08:23:36.547Z,89.97
2022-11-30T08:26:06.611Z,89.08
2022-11-30T08:28:36.361Z,89.93
2022-11-30T08:31:24.892Z,89.38
2022-11-30T08:33:56.725Z,89.54
2022-11-30T08:36:25.800Z,89.52
2022-11-30T08:38:52.779Z,89.50
2022-11-30T08:41:21.723Z,88.92
2022-11-30T08:43:49.727Z,89.57
2022-11-30T08:49:21.450Z,88.21
2022-11-30T08:52:16.446Z,89.46
2022-11-30T08:57:33.727Z,88.69
2022-11-30T09:00:00.613Z,87.67
2022-11-30T09:02:27.721Z,88.64
2022-11-30T09:04:54.660Z,89.23
2022-11-30T09:07:21.686Z,87.96
2022-11-30T09:09:48.704Z,88.22
2022-11-30T09:12:15.700Z,88.08
2022-11-30T09:14:42.904Z,88.41
2022-11-30T09:17:09.835Z,87.55
2022-11-30T09:19:36.877Z,87.57
2022-11-30T09:22:03.981Z,86.95
2022-11-30T09:24:30.904Z,87.15
2022-11-30T09:26:58.024Z,86.98
2022-11-30T09:29:25.046Z,85.89
2022-11-30T09:31:51.984Z,86.03
2022-11-30T09:34:18.953Z,85.19
2022-11-30T09:36:45.937Z,86.64
2022-11-30T09:39:13.268Z,87.05
2022-11-30T09:41:54.159Z,85.30
2022-11-30T09:44:48.254Z,85.17
2022-11-30T09:47:57.722Z,85.52
2022-11-30T09:50:28.335Z,84.93
2022-11-30T09:53:06.665Z,84.68
2022-11-30T09:55:40.185Z,84.77
2022-11-30T09:58:07.937Z,84.76
2022-11-30T10:00:37.154Z,86.07
2022-11-30T10:03:06.549Z,86.75
2022-11-30T10:06:11.477Z,86.26
2022-11-30T10:09:17.226Z,85.99
2022-11-30T10:11:58.410Z,85.66
2022-11-30T10:14:43.084Z,85.20
2022-11-30T10:17:45.331Z,84.04
2022-11-30T10:20:31.641Z,85.69
2022-11-30T10:23:31.632Z,85.28
2022-11-30T10:25:58.577Z,84.59
2022-11-30T10:28:48.971Z,85.36
2022-11-30T10:31:17.382Z,85.10
2022-11-30T10:33:52.649Z,84.37
2022-11-30T10:36:37.386Z,84.72
2022-11-30T10:39:28.403Z,84.54
2022-11-30T10:42:12.626Z,84.52
2022-11-30T10:44:43.283Z,85.03
2022-11-30T10:47:24.532Z,83.87
2022-11-30T10:49:53.076Z,85.07
2022-11-30T10:52:28.016Z,83.90
2022-11-30T10:55:02.211Z,84.15
2022-11-30T10:57:32.589Z,84.41
2022-11-30T11:00:02.719Z,84.56
2022-11-30T11:02:40.480Z,85.47
2022-11-30T11:05:18.729Z,84.70
2022-11-30T11:08:05.760Z,84.45
2022-11-30T11:10:49.953Z,84.48
2022-11-30T11:13:19.470Z,84.10
2022-11-30T11:16:00.899Z,84.87
2022-11-30T11:18:30.458Z,84.98
2022-11-30T11:21:19.283Z,84.79
2022-11-30T11:23:50.239Z,83.65
2022-11-30T11:26:23.837Z,84.02
2022-11-30T11:28:53.367Z,84.03
2022-11-30T11:31:33.760Z,84.14
2022-11-30T11:34:00.891Z,84.67
2022-11-30T11:36:31.103Z,84.58
2022-11-30T11:38:59.832Z,83.75
2022-11-30T11:41:28.558Z,84.05
2022-11-30T11:44:06.519Z,83.22
2022-11-30T11:46:36.781Z,84.55
2022-11-30T11:49:06.793Z,85.30
2022-11-30T11:51:37.100Z,84.21
2022-11-30T11:54:07.197Z,85.00
2022-11-30T11:56:36.955Z,85.18
2022-11-30T11:59:34.546Z,84.75
2022-11-30T12:02:44.207Z,84.01
2022-11-30T12:05:37.175Z,84.48
2022-11-30T12:08:28.402Z,84.81
2022-11-30T12:11:25.964Z,85.14
2022-11-30T12:13:54.009Z,85.07
2022-11-30T12:16:26.656Z,84.07
2022-11-30T12:19:19.186Z,84.60
2022-11-30T12:22:07.729Z,83.96
2022-11-30T12:24:43.584Z,84.51
2022-11-30T12:27:37.097Z,85.12
2022-11-30T12:30:16.075Z,83.96
2022-11-30T12:33:07.545Z,84.93
2022-11-30T12:35:45.868Z,84.34
2022-11-30T12:38:50.386Z,85.27
2022-11-30T12:41:56.147Z,84.75
2022-11-30T12:44:42.125Z,84.19
2022-11-30T12:47:37.152Z,84.80
2022-11-30T12:50:41.006Z,84.71
2022-11-30T12:53:14.109Z,85.78
2022-11-30T12:56:01.317Z,85.50
2022-11-30T12:59:07.164Z,86.48
2022-11-30T13:01:59.655Z,85.95
2022-11-30T13:04:46.505Z,84.79
2022-11-30T13:07:32.114Z,85.54
2022-11-30T13:10:06.752Z,85.31
2022-11-30T13:12:39.008Z,85.02
2022-11-30T13:15:15.807Z,85.35
2022-11-30T13:17:44.156Z,85.57
2022-11-30T13:20:39.416Z,86.82
2022-11-30T13:23:15.269Z,85.49
2022-11-30T13:26:21.260Z,87.14
2022-11-30T13:29:04.736Z,86.37
2022-11-30T13:32:04.553Z,86.55
2022-11-30T13:34:32.993Z,86.18
2022-11-30T13:37:06.309Z,86.06
2022-11-30T13:39:51.523Z,86.94
2022-11-30T13:42:31.270Z,86.29
2022-11-30T13:45:18.253Z,87.29
2022-11-30T13:47:54.724Z,86.69
2022-11-30T13:50:34.838Z,86.08
2022-11-30T13:53:27.154Z,86.85
2022-11-30T13:56:09.245Z,88.05
2022-11-30T13:58:36.234Z,85.97
2022-11-30T14:01:21.733Z,86.69
2022-11-30T14:04:21.248Z,87.31
2022-11-30T14:07:00.824Z,87.69
2022-11-30T14:09:42.960Z,86.84
2022-11-30T14:12:40.343Z,88.06
2022-11-30T14:15:34.539Z,87.63
2022-11-30T14:18:22.010Z,87.73
2022-11-30T14:21:01.160Z,87.46
2022-11-30T14:23:40.371Z,88.24
2022-11-30T14:26:11.551Z,87.82
2022-11-30T14:28:56.729Z,87.22
2022-11-30T14:31:26.963Z,88.54
2022-11-30T14:33:59.089Z,88.12
2022-11-30T14:36:34.720Z,87.92
2022-11-30T14:39:01.983Z,87.69
2022-11-30T14:41:30.678Z,88.57
2022-11-30T14:44:12.837Z,89.27
2022-11-30T14:46:40.739Z,88.92
2022-11-30T14:49:17.442Z,87.79
2022-11-30T14:51:49.708Z,88.41
2022-11-30T14:54:25.571Z,89.13
2022-11-30T14:56:59.269Z,88.96
2022-11-30T14:59:48.061Z,88.06
2022-11-30T15:02:26.914Z,88.63
2022-11-30T15:04:55.611Z,88.76
2022-11-30T15:07:24.185Z,88.79
2022-11-30T15:09:57.765Z,88.58
2022-11-30T15:12:25.778Z,88.92
2022-11-30T15:15:11.926Z,88.06
2022-11-30T15:17:49.201Z,87.48
2022-11-30T15:20:26.152Z,87.93
2022-11-30T15:22:55.116Z,88.47
2022-11-30T15:25:25.350Z,88.83
2022-11-30T15:27:52.657Z,89.25
2022-11-30T15:30:19.895Z,88.00
2022-11-30T15:32:52.937Z,88.47
2022-11-30T15:35:23.800Z,88.79
2022-11-30T15:37:51.269Z,89.06
2022-11-30T15:40:35.034Z,88.13
2022-11-30T15:43:02.480Z,88.38
2022-11-30T15:45:39.001Z,89.22
2022-11-30T15:48:38.331Z,88.33
2022-11-30T15:51:06.780Z,88.30
2022-11-30T15:53:49.393Z,88.33
2022-11-30T15:56:28.165Z,88.17
2022-11-30T15:59:22.844Z,87.84
2022-11-30T16:02:02.824Z,88.49
2022-11-30T16:04:58.835Z,89.09
2022-11-30T16:07:30.181Z,88.34
2022-11-30T16:10:04.948Z,88.04
2022-11-30T16:12:31.888Z,88.65
2022-11-30T16:14:58.885Z,87.36
2022-11-30T16:17:27.653Z,88.76
2022-11-30T16:19:54.568Z,87.82
2022-11-30T16:22:21.487Z,88.07
2022-11-30T16:24:48.383Z,87.72
2022-11-30T16:27:20.407Z,89.31
2022-11-30T16:29:52.156Z,89.19
2022-11-30T16:32:19.681Z,88.11
2022-11-30T16:34:48.373Z,88.04
2022-11-30T16:37:15.310Z,87.99
2022-11-30T16:39:42.282Z,88.86
2022-11-30T16:42:12.877Z,88.72
2022-11-30T16:44:39.827Z,87.90
2022-11-30T16:47:06.717Z,88.77
2022-11-30T16:49:33.676Z,89.08
2022-11-30T16:52:00.561Z,89.29
2022-11-30T16:54:27.606Z,88.60
2022-11-30T16:56:54.514Z,88.15
2022-11-30T16:59:21.410Z,87.95
2022-11-30T17:01:53.574Z,88.56
2022-11-30T17:04:26.230Z,88.14
2022-11-30T17:07:00.489Z,88.40
2022-11-30T17:09:30.575Z,88.37
2022-11-30T17:11:57.604Z,88.04
2022-11-30T17:14:24.549Z,88.23
2022-11-30T17:16:51.525Z,88.17
2022-11-30T17:19:18.476Z,88.10
2022-11-30T17:21:45.494Z,88.23
2022-11-30T17:24:13.349Z,88.47
2022-11-30T17:26:40.710Z,88.54
2022-11-30T17:29:07.638Z,88.45
2022-11-30T17:31:34.844Z,88.95
2022-11-30T17:34:01.939Z,88.42
2022-11-30T17:36:29.597Z,87.94
2022-11-30T17:38:56.970Z,88.75
2022-11-30T17:41:24.111Z,88.35
2022-11-30T17:43:52.301Z,89.17
2022-11-30T17:46:19.589Z,88.83
2022-11-30T17:48:46.861Z,88.65
2022-11-30T17:51:14.361Z,87.57
2022-11-30T17:53:42.990Z,87.89
2022-11-30T17:56:12.654Z,88.33
2022-11-30T17:58:43.787Z,88.16
2022-11-30T18:01:20.459Z,88.82
2022-11-30T18:03:47.906Z,88.03
2022-11-30T18:06:15.673Z,88.31
2022-11-30T18:08:43.169Z,89.01
2022-11-30T18:11:11.882Z,88.79
2022-11-30T18:13:39.741Z,88.59
2022-11-30T18:16:27.933Z,88.43
2022-11-30T18:18:57.579Z,88.02
2022-11-30T18:21:26.828Z,89.26
2022-11-30T18:23:54.036Z,88.02
2022-11-30T18:26:24.312Z,88.73
2022-11-30T18:28:53.373Z,88.02
2022-11-30T18:31:20.532Z,89.27
2022-11-30T18:33:47.714Z,88.52
2022-11-30T18:36:14.964Z,88.67
2022-11-30T18:38:42.032Z,88.30
2022-11-30T18:41:08.940Z,88.56
2022-11-30T18:43:38.428Z,88.12
2022-11-30T18:46:08.580Z,88.31
2022-11-30T18:48:35.989Z,87.56
2022-11-30T18:51:14.368Z,87.88
2022-11-30T18:53:41.858Z,87.53
2022-11-30T18:56:14.740Z,88.16
2022-11-30T18:58:42.685Z,88.42
2022-11-30T19:01:12.602Z,88.41
2022-11-30T19:03:40.410Z,87.51
2022-11-30T19:06:09.071Z,88.09
2022-11-30T19:08:37.524Z,88.16
2022-11-30T19:11:09.659Z,87.25
2022-11-30T19:13:37.750Z,87.64
2022-11-30T19:16:08.816Z,87.94
2022-11-30T19:18:37.471Z,87.70
2022-11-30T19:21:10.624Z,88.43
2022-11-30T19:23:39.115Z,89.03
2022-11-30T19:26:08.203Z,87.08
2022-11-30T19:28:37.273Z,87.09
2022-11-30T19:31:23.959Z,87.46
2022-11-30T19:33:54.629Z,87.99
2022-11-30T19:36:24.987Z,87.44
2022-11-30T19:38:52.748Z,88.12
2022-11-30T19:41:21.764Z,87.66
2022-11-30T19:44:02.752Z,86.76
2022-11-30T19:46:32.377Z,87.00
2022-11-30T19:49:02.016Z,86.98
2022-11-30T19:51:30.870Z,87.21
2022-11-30T19:54:01.575Z,87.30
2022-11-30T19:56:31.741Z,87.22
2022-11-30T19:59:04.582Z,87.03
2022-11-30T20:01:33.745Z,86.95
2022-11-30T20:04:01.687Z,87.06
2022-11-30T20:06:33.170Z,87.42
2022-11-30T20:09:02.795Z,86.95
2022-11-30T20:11:29.937Z,86.29
2022-11-30T20:13:56.968Z,86.64
2022-11-30T20:16:24.358Z,86.69
2022-11-30T20:18:55.876Z,86.85
2022-11-30T20:21:26.542Z,87.04
2022-11-30T20:23:55.299Z,86.57
2022-11-30T20:26:30.600Z,86.09
2022-11-30T20:28:59.141Z,86.64
2022-11-30T20:31:27.964Z,85.53
2022-11-30T20:33:55.138Z,86.62
2022-11-30T20:36:24.747Z,86.55
2022-11-30T20:38:51.914Z,85.88
2022-11-30T20:41:21.523Z,86.12
2022-11-30T20:43:49.092Z,86.95
2022-11-30T20:46:21.911Z,86.28
2022-11-30T20:48:49.313Z,86.17
2022-11-30T20:51:30.714Z,87.06
2022-11-30T20:54:07.191Z,87.36
2022-11-30T20:56:39.482Z,86.12
2022-11-30T20:59:13.724Z,86.22
2022-11-30T21:01:44.384Z,86.50
2022-11-30T21:04:12.858Z,86.42
2022-11-30T21:06:40.803Z,86.34
2022-11-30T21:09:07.699Z,85.79
2022-11-30T21:11:34.647Z,85.95
2022-11-30T21:14:01.679Z,85.96
2022-11-30T21:16:29.973Z,86.16
2022-11-30T21:18:59.330Z,86.96
2022-11-30T21:21:30.762Z,86.92
2022-11-30T21:24:00.342Z,86.93
2022-11-30T21:26:30.233Z,86.96
2022-11-30T21:29:04.675Z,86.25
2022-11-30T21:31:32.196Z,87.17
2022-11-30T21:34:00.642Z,86.69
2022-11-30T21:36:27.979Z,86.67
2022-11-30T21:39:01.084Z,86.82
2022-11-30T21:41:31.272Z,87.04
2022-11-30T21:43:59.453Z,86.89
2022-11-30T21:46:26.441Z,86.40
2022-11-30T21:48:53.552Z,86.14
2022-11-30T21:51:23.750Z,86.97
2022-11-30T21:53:54.683Z,86.89
2022-11-30T21:56:29.746Z,86.47
2022-11-30T21:58:57.231Z,87.30
2022-11-30T22:01:27.133Z,87.31
2022-11-30T22:03:56.071Z,86.71
2022-11-30T22:06:24.720Z,87.15
2022-11-30T22:08:52.128Z,87.53
2022-11-30T22:11:21.327Z,86.93
2022-11-30T22:13:53.264Z,87.33
2022-11-30T22:16:21.184Z,86.79
2022-11-30T22:18:48.674Z,86.56
2022-11-30T22:21:18.041Z,86.83
2022-11-30T22:23:47.543Z,87.38
2022-11-30T22:26:15.956Z,86.17
2022-11-30T22:28:45.350Z,86.89
2022-11-30T22:31:14.625Z,86.70
2022-11-30T22:33:43.243Z,87.30
2022-11-30T22:36:31.410Z,86.79
2022-11-30T22:39:00.946Z,87.28
2022-11-30T22:41:28.545Z,87.03
2022-11-30T22:43:57.189Z,86.33
2022-11-30T22:46:25.238Z,86.35
2022-11-30T22:48:53.025Z,86.37
2022-11-30T22:51:24.890Z,86.67
2022-11-30T22:53:52.958Z,86.50
2022-11-30T22:56:22.367Z,86.30
2022-11-30T22:58:51.020Z,86.27
2022-11-30T23:01:20.845Z,86.39
2022-11-30T23:03:49.349Z,85.87
2022-11-30T23:06:17.907Z,86.12
2022-11-30T23:08:46.199Z,86.33
2022-11-30T23:11:16.168Z,86.28
2022-11-30T23:13:43.675Z,86.24
2022-11-30T23:16:13.185Z,85.98
2022-11-30T23:18:49.570Z,86.15
2022-11-30T23:21:25.216Z,86.12
2022-11-30T23:23:53.068Z,85.73
2022-11-30T23:26:22.606Z,86.00
2022-11-30T23:28:51.519Z,86.19
2022-11-30T23:31:32.680Z,86.10
2022-11-30T23:34:02.998Z,86.47
2022-11-30T23:36:29.852Z,86.71
2022-11-30T23:38:59.472Z,86.14
2022-11-30T23:41:27.314Z,86.44
2022-11-30T23:43:54.616Z,86.09
2022-11-30T23:46:22.163Z,86.22
2022-11-30T23:48:49.430Z,85.70
2022-11-30T23:51:16.437Z,86.29
2022-11-30T23:53:43.313Z,86.41
2022-11-30T23:56:14.052Z,86.15
2022-11-30T23:58:41.231Z,86.18
